Airfield :







YOU CAN JOIN US ON...

 
LOGIN :

Register | Disclaimer

   EN    FR    IT 

 









Legend :    VFR   Marginal VFR   IFR   Intensive IFR   Very Intensive IFR
Visi :
Ceiling :
>= 8 km
>= 3000ft
5 to 8 km
1000 to 3000 ft
1500m to 5 km
500 to 1000 ft
800 to 1500m
200 to 500 ft
< 800m
< 200 ft
Symbols :   Thunderstorms  Fog  Heavy snow  Heavy precipitations  Wind > 20 kt







- Airport Elevation : 1442 ft
- IATA code : ZUM


CZUM - Churchill Falls

CURRENT METAR :
  • 210600Z AUTO 26003KT 9SM OVC060 11/11 A2953 RMK SLP011 DENSITY ALT 1700FT

EXPIRED METARs :
  • 210500Z AUTO 32003KT 260V330 9SM BKN055 OVC068 12/11 A2954 RMK SLP012 DENSITY ALT 1800FT
  • 210400Z AUTO 28003KT 9SM SCT060 BKN130 BKN170 12/12 A2953 RMK SLP010 DENSITY ALT 1800FT

TAF AMD TAF CZUM
Valid from the 21 at 02:00 until the 21 at 14:00 UTC


210239Z 2102/2114 VRB03KT 6SM BR SCT002 BKN025
TEMPO 2102/2112 11/4SM BR BKN002 RMK FCST BASED ON AUTO OBS. NXT FCST BY 210800Z
CZQX FIR / North America



MET'MAP, your aeronautical weather chart ! - Copyright ORBIFLY December 2007 - Disclaimer

ORBIFLY MET'MAP TEAM :

Programming & Development : Alexandra Zaïnal
Concept & Development : Baudouin d'Aumeries
Co-Development & Prog : Marc-Olivier Méhu
Technical & hardware support : Manuel Goepfert

Contact : metmap@orbifly.com




SOURCES & CREDITS :

   NOAA